createdAt,value
2022-10-24T00:00:52.558Z,21.60
2022-10-24T00:10:58.607Z,24.00
2022-10-24T00:21:04.886Z,23.40
2022-10-24T00:31:14.565Z,22.50
2022-10-24T00:41:22.475Z,24.50
2022-10-24T00:51:32.139Z,25.80
2022-10-24T01:01:38.976Z,29.20
2022-10-24T01:12:01.252Z,31.40
2022-10-24T01:22:13.585Z,28.80
2022-10-24T01:32:32.704Z,28.70
2022-10-24T01:42:41.173Z,28.30
2022-10-24T01:52:49.017Z,28.60
2022-10-24T02:03:00.310Z,27.40
2022-10-24T02:13:09.941Z,28.20
2022-10-24T02:23:22.209Z,26.50
2022-10-24T02:33:31.195Z,25.50
2022-10-24T02:43:39.260Z,27.30
2022-10-24T02:53:45.024Z,25.70
2022-10-24T03:03:51.139Z,26.90
2022-10-24T03:13:56.797Z,26.20
2022-10-24T03:24:02.705Z,25.30
2022-10-24T03:34:08.755Z,23.90
2022-10-24T03:44:14.794Z,23.20
2022-10-24T03:54:20.648Z,23.70
2022-10-24T04:04:26.464Z,23.40
2022-10-24T04:14:32.157Z,23.30
2022-10-24T04:24:39.529Z,22.40
2022-10-24T04:34:45.214Z,21.20
2022-10-24T04:44:51.057Z,23.00
2022-10-24T04:54:56.707Z,24.60
2022-10-24T05:05:02.419Z,22.50
2022-10-24T05:15:09.984Z,19.90
2022-10-24T05:25:15.858Z,18.80
2022-10-24T05:35:22.299Z,18.20
2022-10-24T05:45:28.071Z,18.20
2022-10-24T05:55:34.603Z,16.90
2022-10-24T06:05:40.311Z,15.70
2022-10-24T06:15:46.506Z,15.70
2022-10-24T06:25:52.073Z,16.70
2022-10-24T06:35:59.913Z,16.00
2022-10-24T06:46:09.569Z,14.60
2022-10-24T06:56:15.698Z,15.90
2022-10-24T07:06:24.415Z,16.00
2022-10-24T07:16:30.275Z,13.60
2022-10-24T07:26:36.042Z,12.20
2022-10-24T07:36:43.880Z,12.40
2022-10-24T07:46:49.810Z,12.50
2022-10-24T07:56:55.597Z,12.30
2022-10-24T08:07:01.818Z,9.90
2022-10-24T08:17:08.222Z,10.20
2022-10-24T08:27:14.603Z,8.20
2022-10-24T08:37:20.427Z,7.50
2022-10-24T08:57:48.327Z,7.30
2022-10-24T09:08:01.649Z,6.90
2022-10-24T09:18:20.149Z,6.70
2022-10-24T09:28:26.576Z,6.10
2022-10-24T09:38:35.189Z,6.00
2022-10-24T09:48:53.157Z,4.80
2022-10-24T09:58:58.758Z,4.90
2022-10-24T10:09:12.656Z,6.20
2022-10-24T10:19:20.199Z,4.60
2022-10-24T10:29:26.592Z,4.30
2022-10-24T10:39:46.524Z,4.10
2022-10-24T10:49:57.053Z,3.20
2022-10-24T11:00:09.532Z,4.80
2022-10-24T11:10:20.722Z,3.90
2022-10-24T11:20:30.766Z,3.20
2022-10-24T11:30:51.950Z,3.70
2022-10-24T11:41:04.675Z,3.10
2022-10-24T11:51:20.444Z,3.00
2022-10-24T12:01:47.674Z,2.80
2022-10-24T12:12:15.742Z,2.90
2022-10-24T12:32:42.459Z,7.00
2022-10-24T12:43:17.140Z,3.00
2022-10-24T12:53:51.308Z,3.20
2022-10-24T13:04:21.498Z,3.20
2022-10-24T13:14:53.825Z,3.10
2022-10-24T13:25:00.507Z,2.50
2022-10-24T13:35:15.939Z,3.00
2022-10-24T13:45:29.018Z,2.80
2022-10-24T13:55:39.078Z,3.70
2022-10-24T14:05:48.831Z,2.90
2022-10-24T14:15:57.476Z,3.80
2022-10-24T14:26:07.075Z,3.80
2022-10-24T14:36:14.269Z,3.00
2022-10-24T14:46:36.515Z,3.80
2022-10-24T14:56:42.458Z,4.60
2022-10-24T15:06:48.129Z,5.10
2022-10-24T15:16:53.929Z,6.90
2022-10-24T15:27:13.831Z,9.80
2022-10-24T15:37:24.523Z,13.20
2022-10-24T15:47:31.278Z,24.60
2022-10-24T15:57:37.962Z,11.40
2022-10-24T16:07:44.119Z,14.10
2022-10-24T16:17:49.978Z,11.00
2022-10-24T16:27:56.116Z,12.80
2022-10-24T16:38:02.749Z,12.40
2022-10-24T16:48:09.157Z,26.70
2022-10-24T16:58:15.199Z,15.70
2022-10-24T17:08:21.485Z,21.10
2022-10-24T17:18:27.594Z,19.30
2022-10-24T17:28:33.998Z,16.90
2022-10-24T17:38:44.835Z,15.30
2022-10-24T17:48:51.254Z,17.50
2022-10-24T17:58:57.049Z,22.40
2022-10-24T18:09:03.075Z,18.40
2022-10-24T18:19:09.275Z,18.40
2022-10-24T18:29:15.297Z,14.00
2022-10-24T18:39:23.182Z,14.80
2022-10-24T18:49:31.333Z,18.20
2022-10-24T18:59:37.678Z,16.20
2022-10-24T19:09:43.851Z,16.30
2022-10-24T19:19:51.312Z,14.60
2022-10-24T19:29:56.943Z,14.40
2022-10-24T19:40:02.854Z,14.10
2022-10-24T19:50:12.396Z,15.20
2022-10-24T20:00:19.845Z,16.40
2022-10-24T20:10:26.102Z,19.30
2022-10-24T20:20:31.864Z,19.00
2022-10-24T20:30:42.936Z,18.00
2022-10-24T20:40:48.828Z,15.80
2022-10-24T20:50:54.735Z,16.70
2022-10-24T21:01:05.797Z,16.10
2022-10-24T21:11:15.678Z,13.80
2022-10-24T21:21:23.014Z,14.30
2022-10-24T21:31:28.812Z,13.40
2022-10-24T21:41:36.250Z,13.80
2022-10-24T21:51:43.937Z,12.20
2022-10-24T22:01:51.368Z,11.90
2022-10-24T22:11:58.123Z,9.90
2022-10-24T22:22:04.042Z,11.30
2022-10-24T22:32:15.655Z,12.70
2022-10-24T22:42:22.171Z,10.30
2022-10-24T22:52:29.286Z,10.00
2022-10-24T23:02:40.954Z,12.70
2022-10-24T23:12:48.360Z,11.30
2022-10-24T23:23:09.028Z,11.60
2022-10-24T23:33:27.401Z,10.80
2022-10-24T23:43:34.120Z,10.40
2022-10-24T23:53:51.382Z,8.00
